Appleton, New York
Current Conditions -  °F | °C
As of 8:53 AM on Thursday 23 Oct 2014 (Local Time) from KIAG Reporting Station
Few Clouds Few Clouds  
Wind Chill: 41°   Ceiling: Unl
Heat Index: 46°   Visibility: 10mi
Dew Point: 41°   Wind: 10mph
Humidity: 83%   Direction: 350°N
Pressure: 30.14"   Gusts: NA
Location:  43.33°N, 78.65°W
Report Text: KIAG 231253Z 35009KT 10SM FEW240 08/05 A3014 RMK AO2 SLP215 T00780050
Loading
Personal Weather Stations






























Interactive Weather Map
Tropical Storm Tracking
New forecast layout! Learn more

10-Day Weather Forecast

Advertisements
Track Severe Weather on mobile